sensor_id;sensor_type;location;lat;lon;timestamp;temperature;humidity
22908;DHT22;11620;50.050;8.690;2022-10-17T00:00:07;16.60;99.90
22908;DHT22;11620;50.050;8.690;2022-10-17T00:02:56;16.50;99.90
22908;DHT22;11620;50.050;8.690;2022-10-17T00:05:46;16.60;99.90
22908;DHT22;11620;50.050;8.690;2022-10-17T00:08:36;16.50;99.90
22908;DHT22;11620;50.050;8.690;2022-10-17T00:11:26;16.50;99.90
22908;DHT22;11620;50.050;8.690;2022-10-17T00:14:15;16.50;99.90
22908;DHT22;11620;50.050;8.690;2022-10-17T00:17:02;16.50;99.90
22908;DHT22;11620;50.050;8.690;2022-10-17T00:20:12;16.50;99.90
22908;DHT22;11620;50.050;8.690;2022-10-17T00:22:57;16.40;99.90
22908;DHT22;11620;50.050;8.690;2022-10-17T00:26:08;16.40;99.90
22908;DHT22;11620;50.050;8.690;2022-10-17T00:29:26;16.40;99.90
22908;DHT22;11620;50.050;8.690;2022-10-17T00:32:13;16.40;99.90
22908;DHT22;11620;50.050;8.690;2022-10-17T00:35:08;16.30;99.90
22908;DHT22;11620;50.050;8.690;2022-10-17T00:37:55;16.30;99.90
22908;DHT22;11620;50.050;8.690;2022-10-17T00:40:41;16.30;99.90
22908;DHT22;11620;50.050;8.690;2022-10-17T00:43:28;16.30;99.90
22908;DHT22;11620;50.050;8.690;2022-10-17T00:46:14;16.20;99.90
22908;DHT22;11620;50.050;8.690;2022-10-17T00:49:08;16.20;99.90
22908;DHT22;11620;50.050;8.690;2022-10-17T00:52:07;16.20;99.90
22908;DHT22;11620;50.050;8.690;2022-10-17T00:55:02;16.20;99.90
22908;DHT22;11620;50.050;8.690;2022-10-17T00:57:49;16.20;99.90
22908;DHT22;11620;50.050;8.690;2022-10-17T01:00:40;16.10;99.90
22908;DHT22;11620;50.050;8.690;2022-10-17T01:03:29;16.10;99.90
22908;DHT22;11620;50.050;8.690;2022-10-17T01:06:15;16.10;99.90
22908;DHT22;11620;50.050;8.690;2022-10-17T01:09:02;16.10;99.90
22908;DHT22;11620;50.050;8.690;2022-10-17T01:12:03;16.10;99.90
22908;DHT22;11620;50.050;8.690;2022-10-17T01:24:46;16.00;99.90
22908;DHT22;11620;50.050;8.690;2022-10-17T01:28:07;15.90;99.90
22908;DHT22;11620;50.050;8.690;2022-10-17T01:31:23;15.90;99.90
22908;DHT22;11620;50.050;8.690;2022-10-17T01:34:27;15.80;99.90
22908;DHT22;11620;50.050;8.690;2022-10-17T01:37:32;15.80;99.90
22908;DHT22;11620;50.050;8.690;2022-10-17T01:40:36;15.80;99.90
22908;DHT22;11620;50.050;8.690;2022-10-17T01:43:48;15.80;99.90
22908;DHT22;11620;50.050;8.690;2022-10-17T01:46:53;15.70;99.90
22908;DHT22;11620;50.050;8.690;2022-10-17T01:49:50;15.70;99.90
22908;DHT22;11620;50.050;8.690;2022-10-17T01:52:45;15.70;99.90
22908;DHT22;11620;50.050;8.690;2022-10-17T01:55:41;15.70;99.90
22908;DHT22;11620;50.050;8.690;2022-10-17T02:02:14;15.70;99.90
22908;DHT22;11620;50.050;8.690;2022-10-17T02:05:13;15.70;99.90
22908;DHT22;11620;50.050;8.690;2022-10-17T02:08:06;15.70;99.90
22908;DHT22;11620;50.050;8.690;2022-10-17T02:14:20;15.60;99.90
22908;DHT22;11620;50.050;8.690;2022-10-17T02:20:33;15.60;99.90
22908;DHT22;11620;50.050;8.690;2022-10-17T02:27:19;15.50;99.90
22908;DHT22;11620;50.050;8.690;2022-10-17T02:36:37;15.40;99.90
22908;DHT22;11620;50.050;8.690;2022-10-17T02:39:25;15.40;99.90
22908;DHT22;11620;50.050;8.690;2022-10-17T02:42:13;15.40;99.90
22908;DHT22;11620;50.050;8.690;2022-10-17T02:45:00;15.40;99.90
22908;DHT22;11620;50.050;8.690;2022-10-17T02:48:24;15.30;99.90
22908;DHT22;11620;50.050;8.690;2022-10-17T02:51:06;15.40;99.90
22908;DHT22;11620;50.050;8.690;2022-10-17T02:56:50;15.30;99.90
22908;DHT22;11620;50.050;8.690;2022-10-17T02:59:38;15.30;99.90
22908;DHT22;11620;50.050;8.690;2022-10-17T03:02:27;15.30;99.90
22908;DHT22;11620;50.050;8.690;2022-10-17T03:05:17;15.30;99.90
22908;DHT22;11620;50.050;8.690;2022-10-17T03:08:03;15.30;99.90
22908;DHT22;11620;50.050;8.690;2022-10-17T03:10:50;15.20;99.90
22908;DHT22;11620;50.050;8.690;2022-10-17T03:13:36;15.20;99.90
22908;DHT22;11620;50.050;8.690;2022-10-17T03:16:26;15.20;99.90
22908;DHT22;11620;50.050;8.690;2022-10-17T03:19:12;15.20;99.90
22908;DHT22;11620;50.050;8.690;2022-10-17T03:21:58;15.20;99.90
22908;DHT22;11620;50.050;8.690;2022-10-17T03:24:45;15.20;99.90
22908;DHT22;11620;50.050;8.690;2022-10-17T03:27:31;15.10;99.90
22908;DHT22;11620;50.050;8.690;2022-10-17T03:30:18;15.20;99.90
22908;DHT22;11620;50.050;8.690;2022-10-17T03:33:07;15.10;99.90
22908;DHT22;11620;50.050;8.690;2022-10-17T03:35:54;15.10;99.90
22908;DHT22;11620;50.050;8.690;2022-10-17T03:38:41;15.10;99.90
22908;DHT22;11620;50.050;8.690;2022-10-17T03:41:27;15.10;99.90
22908;DHT22;11620;50.050;8.690;2022-10-17T03:44:14;15.10;99.90
22908;DHT22;11620;50.050;8.690;2022-10-17T03:47:00;15.10;99.90
22908;DHT22;11620;50.050;8.690;2022-10-17T03:49:47;15.10;99.90
22908;DHT22;11620;50.050;8.690;2022-10-17T03:52:33;15.10;99.90
22908;DHT22;11620;50.050;8.690;2022-10-17T03:55:19;15.10;99.90
22908;DHT22;11620;50.050;8.690;2022-10-17T03:58:06;15.10;99.90
22908;DHT22;11620;50.050;8.690;2022-10-17T04:00:52;15.10;99.90
22908;DHT22;11620;50.050;8.690;2022-10-17T04:03:39;15.00;99.90
22908;DHT22;11620;50.050;8.690;2022-10-17T04:06:25;15.00;99.90
22908;DHT22;11620;50.050;8.690;2022-10-17T04:09:12;15.00;99.90
22908;DHT22;11620;50.050;8.690;2022-10-17T04:11:59;15.00;99.90
22908;DHT22;11620;50.050;8.690;2022-10-17T04:14:45;15.00;99.90
22908;DHT22;11620;50.050;8.690;2022-10-17T04:17:31;14.90;99.90
22908;DHT22;11620;50.050;8.690;2022-10-17T04:20:20;15.00;99.90
22908;DHT22;11620;50.050;8.690;2022-10-17T04:23:07;15.00;99.90
22908;DHT22;11620;50.050;8.690;2022-10-17T04:25:57;14.90;99.90
22908;DHT22;11620;50.050;8.690;2022-10-17T04:28:46;14.80;99.90
22908;DHT22;11620;50.050;8.690;2022-10-17T04:31:33;14.80;99.90
22908;DHT22;11620;50.050;8.690;2022-10-17T04:34:19;14.80;99.90
22908;DHT22;11620;50.050;8.690;2022-10-17T04:37:05;14.80;99.90
22908;DHT22;11620;50.050;8.690;2022-10-17T04:40:04;14.80;99.90
22908;DHT22;11620;50.050;8.690;2022-10-17T04:42:56;14.80;99.90
22908;DHT22;11620;50.050;8.690;2022-10-17T04:45:45;14.80;99.90
22908;DHT22;11620;50.050;8.690;2022-10-17T04:48:40;14.90;99.90
22908;DHT22;11620;50.050;8.690;2022-10-17T04:51:37;14.80;99.90
22908;DHT22;11620;50.050;8.690;2022-10-17T04:54:24;14.80;99.90
22908;DHT22;11620;50.050;8.690;2022-10-17T04:57:22;14.80;99.90
22908;DHT22;11620;50.050;8.690;2022-10-17T05:00:12;14.80;99.90
22908;DHT22;11620;50.050;8.690;2022-10-17T05:02:59;14.80;99.90
22908;DHT22;11620;50.050;8.690;2022-10-17T05:05:45;14.80;99.90
22908;DHT22;11620;50.050;8.690;2022-10-17T05:08:32;14.80;99.90
22908;DHT22;11620;50.050;8.690;2022-10-17T05:11:28;14.80;99.90
22908;DHT22;11620;50.050;8.690;2022-10-17T05:14:15;14.70;99.90
22908;DHT22;11620;50.050;8.690;2022-10-17T05:17:01;14.70;99.90
22908;DHT22;11620;50.050;8.690;2022-10-17T05:19:48;14.70;99.90
22908;DHT22;11620;50.050;8.690;2022-10-17T05:22:34;14.70;99.90
22908;DHT22;11620;50.050;8.690;2022-10-17T05:25:20;14.70;99.90
22908;DHT22;11620;50.050;8.690;2022-10-17T05:28:07;14.70;99.90
22908;DHT22;11620;50.050;8.690;2022-10-17T05:30:53;14.70;99.90
22908;DHT22;11620;50.050;8.690;2022-10-17T05:33:40;14.70;99.90
22908;DHT22;11620;50.050;8.690;2022-10-17T05:36:26;14.60;99.90
22908;DHT22;11620;50.050;8.690;2022-10-17T05:39:12;14.60;99.90
22908;DHT22;11620;50.050;8.690;2022-10-17T05:42:00;14.60;99.90
22908;DHT22;11620;50.050;8.690;2022-10-17T05:44:46;14.60;99.90
22908;DHT22;11620;50.050;8.690;2022-10-17T05:47:32;14.60;99.90
22908;DHT22;11620;50.050;8.690;2022-10-17T05:50:18;14.60;99.90
22908;DHT22;11620;50.050;8.690;2022-10-17T05:53:07;14.70;99.90
22908;DHT22;11620;50.050;8.690;2022-10-17T05:55:58;14.60;99.90
22908;DHT22;11620;50.050;8.690;2022-10-17T05:58:45;14.60;99.90
22908;DHT22;11620;50.050;8.690;2022-10-17T06:01:32;14.60;99.90
22908;DHT22;11620;50.050;8.690;2022-10-17T06:04:18;14.60;99.90
22908;DHT22;11620;50.050;8.690;2022-10-17T06:07:05;14.60;99.90
22908;DHT22;11620;50.050;8.690;2022-10-17T06:09:51;14.60;99.90
22908;DHT22;11620;50.050;8.690;2022-10-17T06:12:38;14.70;99.90
22908;DHT22;11620;50.050;8.690;2022-10-17T06:15:24;14.60;99.90
22908;DHT22;11620;50.050;8.690;2022-10-17T06:18:11;14.50;99.90
22908;DHT22;11620;50.050;8.690;2022-10-17T06:21:05;14.50;99.90
22908;DHT22;11620;50.050;8.690;2022-10-17T06:23:52;14.60;99.90
22908;DHT22;11620;50.050;8.690;2022-10-17T06:26:38;14.60;99.90
22908;DHT22;11620;50.050;8.690;2022-10-17T06:29:25;14.70;99.90
22908;DHT22;11620;50.050;8.690;2022-10-17T06:32:11;14.70;99.90
22908;DHT22;11620;50.050;8.690;2022-10-17T06:34:57;14.70;99.90
22908;DHT22;11620;50.050;8.690;2022-10-17T06:37:43;14.80;99.90
22908;DHT22;11620;50.050;8.690;2022-10-17T06:40:30;14.70;99.90
22908;DHT22;11620;50.050;8.690;2022-10-17T06:43:16;14.80;99.90
22908;DHT22;11620;50.050;8.690;2022-10-17T06:46:03;14.80;99.90
22908;DHT22;11620;50.050;8.690;2022-10-17T06:48:50;14.90;99.90
22908;DHT22;11620;50.050;8.690;2022-10-17T06:51:36;14.90;99.90
22908;DHT22;11620;50.050;8.690;2022-10-17T06:54:23;15.00;99.90
22908;DHT22;11620;50.050;8.690;2022-10-17T06:57:09;15.00;99.90
22908;DHT22;11620;50.050;8.690;2022-10-17T06:59:56;15.00;99.90
22908;DHT22;11620;50.050;8.690;2022-10-17T07:02:42;15.00;99.90
22908;DHT22;11620;50.050;8.690;2022-10-17T07:05:29;15.00;99.90
22908;DHT22;11620;50.050;8.690;2022-10-17T07:08:15;15.10;99.90
22908;DHT22;11620;50.050;8.690;2022-10-17T07:11:09;15.20;99.90
22908;DHT22;11620;50.050;8.690;2022-10-17T07:13:56;15.40;99.90
22908;DHT22;11620;50.050;8.690;2022-10-17T07:16:42;15.50;99.90
22908;DHT22;11620;50.050;8.690;2022-10-17T07:19:29;15.60;99.90
22908;DHT22;11620;50.050;8.690;2022-10-17T07:22:15;15.70;99.90
22908;DHT22;11620;50.050;8.690;2022-10-17T07:25:03;15.70;99.90
22908;DHT22;11620;50.050;8.690;2022-10-17T07:27:50;15.80;99.90
22908;DHT22;11620;50.050;8.690;2022-10-17T07:30:37;15.90;99.90
22908;DHT22;11620;50.050;8.690;2022-10-17T07:33:23;16.00;99.90
22908;DHT22;11620;50.050;8.690;2022-10-17T07:36:10;16.10;99.90
22908;DHT22;11620;50.050;8.690;2022-10-17T07:38:56;16.30;99.90
22908;DHT22;11620;50.050;8.690;2022-10-17T07:41:43;16.40;99.90
22908;DHT22;11620;50.050;8.690;2022-10-17T07:44:29;16.60;99.90
22908;DHT22;11620;50.050;8.690;2022-10-17T07:47:15;16.70;99.90
22908;DHT22;11620;50.050;8.690;2022-10-17T07:50:03;16.90;99.90
22908;DHT22;11620;50.050;8.690;2022-10-17T07:52:50;17.10;99.90
22908;DHT22;11620;50.050;8.690;2022-10-17T07:55:37;17.30;99.90
22908;DHT22;11620;50.050;8.690;2022-10-17T07:58:23;17.50;99.90
22908;DHT22;11620;50.050;8.690;2022-10-17T08:01:10;17.80;99.90
22908;DHT22;11620;50.050;8.690;2022-10-17T08:03:59;18.10;99.90
22908;DHT22;11620;50.050;8.690;2022-10-17T08:06:45;18.30;99.90
22908;DHT22;11620;50.050;8.690;2022-10-17T08:09:32;18.60;99.90
22908;DHT22;11620;50.050;8.690;2022-10-17T08:12:18;18.90;99.90
22908;DHT22;11620;50.050;8.690;2022-10-17T08:15:06;19.00;99.90
22908;DHT22;11620;50.050;8.690;2022-10-17T08:17:52;19.20;99.90
22908;DHT22;11620;50.050;8.690;2022-10-17T08:20:41;19.50;99.90
22908;DHT22;11620;50.050;8.690;2022-10-17T08:23:27;19.50;99.90
22908;DHT22;11620;50.050;8.690;2022-10-17T08:26:14;19.60;99.90
22908;DHT22;11620;50.050;8.690;2022-10-17T08:29:02;19.70;99.90
22908;DHT22;11620;50.050;8.690;2022-10-17T08:31:49;19.70;99.90
22908;DHT22;11620;50.050;8.690;2022-10-17T08:34:35;19.70;99.90
22908;DHT22;11620;50.050;8.690;2022-10-17T08:37:22;19.50;99.90
22908;DHT22;11620;50.050;8.690;2022-10-17T08:40:16;19.40;99.90
22908;DHT22;11620;50.050;8.690;2022-10-17T08:43:50;19.20;99.90
22908;DHT22;11620;50.050;8.690;2022-10-17T08:46:39;19.00;99.90
22908;DHT22;11620;50.050;8.690;2022-10-17T08:49:51;19.20;99.90
22908;DHT22;11620;50.050;8.690;2022-10-17T08:55:38;19.30;99.90
22908;DHT22;11620;50.050;8.690;2022-10-17T08:58:31;19.40;99.90
22908;DHT22;11620;50.050;8.690;2022-10-17T09:10:53;19.80;99.90
22908;DHT22;11620;50.050;8.690;2022-10-17T09:22:58;20.20;99.90
22908;DHT22;11620;50.050;8.690;2022-10-17T09:25:55;20.30;99.90
22908;DHT22;11620;50.050;8.690;2022-10-17T09:28:42;20.60;99.90
22908;DHT22;11620;50.050;8.690;2022-10-17T09:31:33;20.80;99.90
22908;DHT22;11620;50.050;8.690;2022-10-17T09:34:20;20.90;99.90
22908;DHT22;11620;50.050;8.690;2022-10-17T09:37:13;21.00;99.90
22908;DHT22;11620;50.050;8.690;2022-10-17T09:40:00;21.20;99.90
22908;DHT22;11620;50.050;8.690;2022-10-17T09:42:48;21.70;99.90
22908;DHT22;11620;50.050;8.690;2022-10-17T09:45:49;21.40;99.90
22908;DHT22;11620;50.050;8.690;2022-10-17T09:48:45;21.40;99.90
22908;DHT22;11620;50.050;8.690;2022-10-17T09:51:33;21.70;99.90
22908;DHT22;11620;50.050;8.690;2022-10-17T09:54:25;22.20;99.90
22908;DHT22;11620;50.050;8.690;2022-10-17T09:57:14;22.00;99.90
22908;DHT22;11620;50.050;8.690;2022-10-17T10:00:04;21.90;99.90
22908;DHT22;11620;50.050;8.690;2022-10-17T10:02:51;21.80;99.90
22908;DHT22;11620;50.050;8.690;2022-10-17T10:06:04;21.60;99.90
22908;DHT22;11620;50.050;8.690;2022-10-17T10:08:52;21.60;99.90
22908;DHT22;11620;50.050;8.690;2022-10-17T10:11:48;22.00;99.90
22908;DHT22;11620;50.050;8.690;2022-10-17T10:14:36;22.30;99.90
22908;DHT22;11620;50.050;8.690;2022-10-17T10:17:38;22.40;99.90
22908;DHT22;11620;50.050;8.690;2022-10-17T10:20:35;23.00;99.90
22908;DHT22;11620;50.050;8.690;2022-10-17T10:23:22;23.30;99.90
22908;DHT22;11620;50.050;8.690;2022-10-17T10:26:33;23.40;99.90
22908;DHT22;11620;50.050;8.690;2022-10-17T10:29:48;23.60;99.90
22908;DHT22;11620;50.050;8.690;2022-10-17T10:32:36;22.80;99.90
22908;DHT22;11620;50.050;8.690;2022-10-17T10:35:32;23.20;99.90
22908;DHT22;11620;50.050;8.690;2022-10-17T10:38:20;23.70;99.90
22908;DHT22;11620;50.050;8.690;2022-10-17T10:41:08;24.20;99.90
22908;DHT22;11620;50.050;8.690;2022-10-17T10:43:55;24.50;99.90
22908;DHT22;11620;50.050;8.690;2022-10-17T10:46:41;24.20;99.90
22908;DHT22;11620;50.050;8.690;2022-10-17T10:49:29;24.10;99.90
22908;DHT22;11620;50.050;8.690;2022-10-17T11:04:26;24.80;99.90
22908;DHT22;11620;50.050;8.690;2022-10-17T11:07:30;25.10;99.90
22908;DHT22;11620;50.050;8.690;2022-10-17T11:13:22;25.50;99.90
22908;DHT22;11620;50.050;8.690;2022-10-17T11:22:29;25.60;99.90
22908;DHT22;11620;50.050;8.690;2022-10-17T11:25:36;25.60;99.90
22908;DHT22;11620;50.050;8.690;2022-10-17T11:28:23;25.70;99.90
22908;DHT22;11620;50.050;8.690;2022-10-17T11:31:14;25.90;99.90
22908;DHT22;11620;50.050;8.690;2022-10-17T11:34:11;25.50;99.90
22908;DHT22;11620;50.050;8.690;2022-10-17T11:37:13;25.80;99.90
22908;DHT22;11620;50.050;8.690;2022-10-17T11:43:00;26.10;99.90
22908;DHT22;11620;50.050;8.690;2022-10-17T11:45:50;26.30;99.90
22908;DHT22;11620;50.050;8.690;2022-10-17T11:48:59;26.40;99.90
22908;DHT22;11620;50.050;8.690;2022-10-17T11:52:00;26.60;99.90
22908;DHT22;11620;50.050;8.690;2022-10-17T11:54:56;26.80;99.90
22908;DHT22;11620;50.050;8.690;2022-10-17T11:58:34;26.20;99.90
22908;DHT22;11620;50.050;8.690;2022-10-17T12:07:45;25.90;99.90
22908;DHT22;11620;50.050;8.690;2022-10-17T12:10:50;25.40;99.90
22908;DHT22;11620;50.050;8.690;2022-10-17T12:19:22;25.90;99.90
22908;DHT22;11620;50.050;8.690;2022-10-17T12:22:24;26.20;99.90
22908;DHT22;11620;50.050;8.690;2022-10-17T12:25:18;26.00;99.90
22908;DHT22;11620;50.050;8.690;2022-10-17T12:31:29;26.50;99.90
22908;DHT22;11620;50.050;8.690;2022-10-17T12:34:18;26.30;99.90
22908;DHT22;11620;50.050;8.690;2022-10-17T12:37:10;26.30;99.90
22908;DHT22;11620;50.050;8.690;2022-10-17T12:39:56;26.20;99.90
22908;DHT22;11620;50.050;8.690;2022-10-17T12:42:48;25.70;99.90
22908;DHT22;11620;50.050;8.690;2022-10-17T12:51:26;26.20;99.90
22908;DHT22;11620;50.050;8.690;2022-10-17T12:54:15;26.10;99.90
22908;DHT22;11620;50.050;8.690;2022-10-17T12:57:01;26.10;99.90
22908;DHT22;11620;50.050;8.690;2022-10-17T12:59:48;26.00;99.90
22908;DHT22;11620;50.050;8.690;2022-10-17T13:02:34;25.90;99.90
22908;DHT22;11620;50.050;8.690;2022-10-17T13:05:30;25.80;99.90
22908;DHT22;11620;50.050;8.690;2022-10-17T13:08:24;25.90;99.90
22908;DHT22;11620;50.050;8.690;2022-10-17T13:11:13;26.00;99.90
22908;DHT22;11620;50.050;8.690;2022-10-17T13:17:29;26.10;99.90
22908;DHT22;11620;50.050;8.690;2022-10-17T13:20:19;26.10;99.90
22908;DHT22;11620;50.050;8.690;2022-10-17T13:23:21;26.10;99.90
22908;DHT22;11620;50.050;8.690;2022-10-17T13:26:15;26.20;99.90
22908;DHT22;11620;50.050;8.690;2022-10-17T13:29:11;25.90;99.90
22908;DHT22;11620;50.050;8.690;2022-10-17T13:32:00;26.10;99.90
22908;DHT22;11620;50.050;8.690;2022-10-17T13:37:54;26.10;99.90
22908;DHT22;11620;50.050;8.690;2022-10-17T13:40:43;26.20;99.90
22908;DHT22;11620;50.050;8.690;2022-10-17T13:43:35;26.20;99.90
22908;DHT22;11620;50.050;8.690;2022-10-17T13:46:29;26.30;99.90
22908;DHT22;11620;50.050;8.690;2022-10-17T13:49:32;26.20;99.90
22908;DHT22;11620;50.050;8.690;2022-10-17T13:52:21;26.40;99.90
22908;DHT22;11620;50.050;8.690;2022-10-17T13:55:14;26.60;99.90
22908;DHT22;11620;50.050;8.690;2022-10-17T13:58:15;26.60;99.90
22908;DHT22;11620;50.050;8.690;2022-10-17T14:01:02;26.20;99.90
22908;DHT22;11620;50.050;8.690;2022-10-17T14:03:58;26.10;99.90
22908;DHT22;11620;50.050;8.690;2022-10-17T14:06:45;26.00;99.90
22908;DHT22;11620;50.050;8.690;2022-10-17T14:09:32;26.10;99.90
22908;DHT22;11620;50.050;8.690;2022-10-17T14:12:20;26.20;99.90
22908;DHT22;11620;50.050;8.690;2022-10-17T14:15:13;25.70;99.90
22908;DHT22;11620;50.050;8.690;2022-10-17T14:18:03;25.40;99.90
22908;DHT22;11620;50.050;8.690;2022-10-17T14:20:50;25.60;99.90
22908;DHT22;11620;50.050;8.690;2022-10-17T14:23:42;25.60;99.90
22908;DHT22;11620;50.050;8.690;2022-10-17T14:26:29;25.60;99.90
22908;DHT22;11620;50.050;8.690;2022-10-17T14:29:25;25.60;99.90
22908;DHT22;11620;50.050;8.690;2022-10-17T14:32:12;25.80;99.90
22908;DHT22;11620;50.050;8.690;2022-10-17T14:35:02;25.70;99.90
22908;DHT22;11620;50.050;8.690;2022-10-17T14:37:51;25.30;99.90
22908;DHT22;11620;50.050;8.690;2022-10-17T14:40:58;25.40;99.90
22908;DHT22;11620;50.050;8.690;2022-10-17T14:43:55;25.30;99.90
22908;DHT22;11620;50.050;8.690;2022-10-17T14:46:44;25.50;99.90
22908;DHT22;11620;50.050;8.690;2022-10-17T14:49:35;25.50;99.90
22908;DHT22;11620;50.050;8.690;2022-10-17T14:52:26;25.50;99.90
22908;DHT22;11620;50.050;8.690;2022-10-17T14:55:25;25.00;99.90
22908;DHT22;11620;50.050;8.690;2022-10-17T14:58:17;25.00;99.90
22908;DHT22;11620;50.050;8.690;2022-10-17T15:01:03;24.90;99.90
22908;DHT22;11620;50.050;8.690;2022-10-17T15:03:50;25.00;99.90
22908;DHT22;11620;50.050;8.690;2022-10-17T15:06:39;25.00;99.90
22908;DHT22;11620;50.050;8.690;2022-10-17T15:09:26;25.10;99.90
22908;DHT22;11620;50.050;8.690;2022-10-17T15:12:22;25.10;99.90
22908;DHT22;11620;50.050;8.690;2022-10-17T15:15:15;25.00;99.90
22908;DHT22;11620;50.050;8.690;2022-10-17T15:18:05;24.80;99.90
22908;DHT22;11620;50.050;8.690;2022-10-17T15:20:59;24.80;99.90
22908;DHT22;11620;50.050;8.690;2022-10-17T15:23:55;24.80;99.90
22908;DHT22;11620;50.050;8.690;2022-10-17T15:26:44;24.50;99.90
22908;DHT22;11620;50.050;8.690;2022-10-17T15:29:33;24.50;99.90
22908;DHT22;11620;50.050;8.690;2022-10-17T15:32:28;24.30;99.90
22908;DHT22;11620;50.050;8.690;2022-10-17T15:35:16;24.50;99.90
22908;DHT22;11620;50.050;8.690;2022-10-17T15:38:05;24.40;99.90
22908;DHT22;11620;50.050;8.690;2022-10-17T15:40:52;24.50;99.90
22908;DHT22;11620;50.050;8.690;2022-10-17T15:43:38;24.40;99.90
22908;DHT22;11620;50.050;8.690;2022-10-17T15:46:29;24.30;99.90
22908;DHT22;11620;50.050;8.690;2022-10-17T15:49:18;24.40;99.90
22908;DHT22;11620;50.050;8.690;2022-10-17T15:52:05;24.20;99.90
22908;DHT22;11620;50.050;8.690;2022-10-17T15:54:52;24.10;99.90
22908;DHT22;11620;50.050;8.690;2022-10-17T15:57:41;24.20;99.90
22908;DHT22;11620;50.050;8.690;2022-10-17T16:00:28;24.00;99.90
22908;DHT22;11620;50.050;8.690;2022-10-17T16:03:14;24.10;99.90
22908;DHT22;11620;50.050;8.690;2022-10-17T16:06:01;24.10;99.90
22908;DHT22;11620;50.050;8.690;2022-10-17T16:08:48;23.90;99.90
22908;DHT22;11620;50.050;8.690;2022-10-17T16:11:40;24.00;99.90
22908;DHT22;11620;50.050;8.690;2022-10-17T16:14:27;23.80;99.90
22908;DHT22;11620;50.050;8.690;2022-10-17T16:17:15;23.80;99.90
22908;DHT22;11620;50.050;8.690;2022-10-17T16:20:01;23.80;99.90
22908;DHT22;11620;50.050;8.690;2022-10-17T16:22:48;23.80;99.90
22908;DHT22;11620;50.050;8.690;2022-10-17T16:25:35;23.80;99.90
22908;DHT22;11620;50.050;8.690;2022-10-17T16:28:21;23.80;99.90
22908;DHT22;11620;50.050;8.690;2022-10-17T16:31:22;23.90;99.90
22908;DHT22;11620;50.050;8.690;2022-10-17T16:34:12;23.80;99.90
22908;DHT22;11620;50.050;8.690;2022-10-17T16:36:58;23.80;99.90
22908;DHT22;11620;50.050;8.690;2022-10-17T16:39:45;23.80;99.90
22908;DHT22;11620;50.050;8.690;2022-10-17T16:42:37;23.70;99.90
22908;DHT22;11620;50.050;8.690;2022-10-17T16:45:29;23.70;99.90
22908;DHT22;11620;50.050;8.690;2022-10-17T16:48:50;23.50;99.90
22908;DHT22;11620;50.050;8.690;2022-10-17T16:51:36;23.50;99.90
22908;DHT22;11620;50.050;8.690;2022-10-17T16:54:23;23.50;99.90
22908;DHT22;11620;50.050;8.690;2022-10-17T16:57:09;23.50;99.90
22908;DHT22;11620;50.050;8.690;2022-10-17T16:59:55;23.40;99.90
22908;DHT22;11620;50.050;8.690;2022-10-17T17:03:14;23.30;99.90
22908;DHT22;11620;50.050;8.690;2022-10-17T17:06:00;23.30;99.90
22908;DHT22;11620;50.050;8.690;2022-10-17T17:08:47;23.20;99.90
22908;DHT22;11620;50.050;8.690;2022-10-17T17:11:34;23.10;99.90
22908;DHT22;11620;50.050;8.690;2022-10-17T17:14:20;23.10;99.90
22908;DHT22;11620;50.050;8.690;2022-10-17T17:17:06;22.90;99.90
22908;DHT22;11620;50.050;8.690;2022-10-17T17:19:53;23.00;99.90
22908;DHT22;11620;50.050;8.690;2022-10-17T17:22:40;22.90;99.90
22908;DHT22;11620;50.050;8.690;2022-10-17T17:25:27;22.90;99.90
22908;DHT22;11620;50.050;8.690;2022-10-17T17:28:13;22.80;99.90
22908;DHT22;11620;50.050;8.690;2022-10-17T17:31:00;22.70;99.90
22908;DHT22;11620;50.050;8.690;2022-10-17T17:33:47;22.70;99.90
22908;DHT22;11620;50.050;8.690;2022-10-17T17:36:35;22.70;99.90
22908;DHT22;11620;50.050;8.690;2022-10-17T17:39:21;22.70;99.90
22908;DHT22;11620;50.050;8.690;2022-10-17T17:42:08;22.60;99.90
22908;DHT22;11620;50.050;8.690;2022-10-17T17:44:54;22.50;99.90
22908;DHT22;11620;50.050;8.690;2022-10-17T17:47:40;22.50;99.90
22908;DHT22;11620;50.050;8.690;2022-10-17T17:50:27;22.50;99.90
22908;DHT22;11620;50.050;8.690;2022-10-17T17:53:15;22.50;99.90
22908;DHT22;11620;50.050;8.690;2022-10-17T17:56:08;22.40;99.90
22908;DHT22;11620;50.050;8.690;2022-10-17T17:58:58;22.40;99.90
22908;DHT22;11620;50.050;8.690;2022-10-17T18:01:44;22.40;99.90
22908;DHT22;11620;50.050;8.690;2022-10-17T18:04:31;22.30;99.90
22908;DHT22;11620;50.050;8.690;2022-10-17T18:07:17;22.30;99.90
22908;DHT22;11620;50.050;8.690;2022-10-17T18:10:04;22.30;99.90
22908;DHT22;11620;50.050;8.690;2022-10-17T18:12:51;22.30;99.90
22908;DHT22;11620;50.050;8.690;2022-10-17T18:15:40;22.30;99.90
22908;DHT22;11620;50.050;8.690;2022-10-17T18:18:28;22.30;99.90
22908;DHT22;11620;50.050;8.690;2022-10-17T18:21:15;22.20;99.90
22908;DHT22;11620;50.050;8.690;2022-10-17T18:24:02;22.20;99.90
22908;DHT22;11620;50.050;8.690;2022-10-17T18:26:49;22.20;99.90
22908;DHT22;11620;50.050;8.690;2022-10-17T18:29:38;22.20;99.90
22908;DHT22;11620;50.050;8.690;2022-10-17T18:32:25;22.10;99.90
22908;DHT22;11620;50.050;8.690;2022-10-17T18:35:11;22.00;99.90
22908;DHT22;11620;50.050;8.690;2022-10-17T18:37:57;22.10;99.90
22908;DHT22;11620;50.050;8.690;2022-10-17T18:40:44;22.00;99.90
22908;DHT22;11620;50.050;8.690;2022-10-17T18:43:35;21.90;99.90
22908;DHT22;11620;50.050;8.690;2022-10-17T18:46:24;21.90;99.90
22908;DHT22;11620;50.050;8.690;2022-10-17T18:49:13;21.90;99.90
22908;DHT22;11620;50.050;8.690;2022-10-17T18:51:59;21.80;99.90
22908;DHT22;11620;50.050;8.690;2022-10-17T18:54:46;21.80;99.90
22908;DHT22;11620;50.050;8.690;2022-10-17T18:57:32;21.80;99.90
22908;DHT22;11620;50.050;8.690;2022-10-17T19:00:18;21.80;99.90
22908;DHT22;11620;50.050;8.690;2022-10-17T19:03:05;21.80;99.90
22908;DHT22;11620;50.050;8.690;2022-10-17T19:05:52;21.80;99.90
22908;DHT22;11620;50.050;8.690;2022-10-17T19:08:39;21.70;99.90
22908;DHT22;11620;50.050;8.690;2022-10-17T19:11:29;21.70;99.90
22908;DHT22;11620;50.050;8.690;2022-10-17T19:14:15;21.60;99.90
22908;DHT22;11620;50.050;8.690;2022-10-17T19:17:02;21.70;99.90
22908;DHT22;11620;50.050;8.690;2022-10-17T19:19:49;21.60;99.90
22908;DHT22;11620;50.050;8.690;2022-10-17T19:22:37;21.50;99.90
22908;DHT22;11620;50.050;8.690;2022-10-17T19:25:23;21.50;99.90
22908;DHT22;11620;50.050;8.690;2022-10-17T19:28:10;21.50;99.90
22908;DHT22;11620;50.050;8.690;2022-10-17T19:30:56;21.50;99.90
22908;DHT22;11620;50.050;8.690;2022-10-17T19:33:42;21.50;99.90
22908;DHT22;11620;50.050;8.690;2022-10-17T19:36:30;21.50;99.90
22908;DHT22;11620;50.050;8.690;2022-10-17T19:39:19;21.40;99.90
22908;DHT22;11620;50.050;8.690;2022-10-17T19:42:06;21.30;99.90